createdAt,value
2023-02-28T00:00:24.097Z,0.93
2023-02-28T00:02:50.790Z,0.94
2023-02-28T00:05:20.097Z,0.96
2023-02-28T00:07:47.012Z,0.95
2023-02-28T00:10:20.249Z,0.95
2023-02-28T00:12:46.677Z,0.92
2023-02-28T00:15:13.160Z,0.87
2023-02-28T00:17:39.885Z,0.83
2023-02-28T00:20:12.832Z,0.78
2023-02-28T00:22:41.610Z,0.72
2023-02-28T00:25:10.198Z,0.69
2023-02-28T00:27:38.421Z,0.67
2023-02-28T00:30:06.765Z,0.63
2023-02-28T00:32:33.713Z,0.57
2023-02-28T00:35:01.930Z,0.54
2023-02-28T00:37:28.421Z,0.50
2023-02-28T00:39:54.949Z,0.45
2023-02-28T00:42:22.778Z,0.43
2023-02-28T00:44:49.336Z,0.40
2023-02-28T00:47:16.919Z,0.36
2023-02-28T00:49:43.973Z,0.34
2023-02-28T00:52:10.990Z,0.33
2023-02-28T00:54:37.445Z,0.28
2023-02-28T00:57:04.062Z,0.25
2023-02-28T00:59:31.951Z,0.23
2023-02-28T01:01:58.787Z,0.25
2023-02-28T01:04:25.342Z,0.26
2023-02-28T01:06:51.873Z,0.28
2023-02-28T01:09:18.413Z,0.28
2023-02-28T01:11:45.084Z,0.28
2023-02-28T01:14:17.022Z,0.30
2023-02-28T01:16:46.144Z,0.29
2023-02-28T01:19:12.712Z,0.28
2023-02-28T01:21:39.330Z,0.25
2023-02-28T01:24:06.499Z,0.23
2023-02-28T01:26:33.019Z,0.20
2023-02-28T01:28:59.634Z,0.16
2023-02-28T01:31:26.282Z,0.11
2023-02-28T01:33:52.929Z,0.09
2023-02-28T01:36:25.252Z,0.06
2023-02-28T01:38:52.213Z,0.03
2023-02-28T01:41:27.556Z,0.00
2023-02-28T01:44:04.101Z,-0.05
2023-02-28T01:46:36.049Z,-0.09
2023-02-28T01:49:12.098Z,-0.12
2023-02-28T01:51:55.568Z,-0.15
2023-02-28T01:54:25.468Z,-0.17
2023-02-28T01:57:02.235Z,-0.21
2023-02-28T01:59:36.105Z,-0.24
2023-02-28T02:02:03.661Z,-0.28
2023-02-28T02:04:38.242Z,-0.32
2023-02-28T02:07:05.265Z,-0.36
2023-02-28T02:09:31.734Z,-0.39
2023-02-28T02:11:58.817Z,-0.44
2023-02-28T02:14:37.147Z,-0.48
2023-02-28T02:17:15.898Z,-0.50
2023-02-28T02:20:19.868Z,-0.54
2023-02-28T02:23:00.943Z,-0.56
2023-02-28T02:26:11.635Z,-0.58
2023-02-28T02:29:05.771Z,-0.59
2023-02-28T02:32:09.716Z,-0.59
2023-02-28T02:35:06.884Z,-0.52
2023-02-28T02:37:44.298Z,-0.48
2023-02-28T02:40:17.386Z,-0.46
2023-02-28T02:42:59.866Z,-0.39
2023-02-28T02:45:37.013Z,-0.29
2023-02-28T02:48:07.837Z,-0.20
2023-02-28T02:50:46.438Z,-0.11
2023-02-28T02:53:16.165Z,-0.02
2023-02-28T02:55:48.340Z,0.08
2023-02-28T02:58:21.156Z,0.13
2023-02-28T03:00:52.168Z,0.15
2023-02-28T03:03:21.747Z,0.18
2023-02-28T03:05:51.427Z,0.22
2023-02-28T03:08:18.588Z,0.24
2023-02-28T03:10:49.313Z,0.25
2023-02-28T03:13:17.267Z,0.25
2023-02-28T03:16:04.977Z,0.23
2023-02-28T03:18:38.267Z,0.22
2023-02-28T03:21:18.622Z,0.22
2023-02-28T03:24:16.870Z,0.23
2023-02-28T03:26:46.276Z,0.21
2023-02-28T03:29:32.218Z,0.22
2023-02-28T03:32:05.291Z,0.22
2023-02-28T03:34:38.790Z,0.25
2023-02-28T03:37:12.001Z,0.28
2023-02-28T03:39:43.791Z,0.30
2023-02-28T03:42:15.542Z,0.33
2023-02-28T03:44:46.581Z,0.35
2023-02-28T03:47:25.055Z,0.33
2023-02-28T03:49:57.712Z,0.30
2023-02-28T03:52:30.779Z,0.27
2023-02-28T03:55:04.513Z,0.27
2023-02-28T03:57:44.475Z,0.24
2023-02-28T04:00:20.359Z,0.23
2023-02-28T04:02:47.056Z,0.21
2023-02-28T04:05:13.537Z,0.19
2023-02-28T04:07:40.017Z,0.16
2023-02-28T04:10:07.410Z,0.12
2023-02-28T04:12:33.956Z,0.10
2023-02-28T04:15:00.395Z,0.13
2023-02-28T04:17:26.904Z,0.14
2023-02-28T04:19:53.311Z,0.12
2023-02-28T04:22:19.805Z,0.06
2023-02-28T04:24:46.490Z,-0.01
2023-02-28T04:27:13.083Z,-0.11
2023-02-28T04:29:39.571Z,-0.18
2023-02-28T04:32:06.245Z,-0.24
2023-02-28T04:34:33.829Z,-0.31
2023-02-28T04:37:17.019Z,-0.35
2023-02-28T04:39:44.524Z,-0.40
2023-02-28T04:42:11.850Z,-0.45
2023-02-28T04:44:38.306Z,-0.49
2023-02-28T04:47:04.877Z,-0.56
2023-02-28T04:49:31.298Z,-0.55
2023-02-28T04:51:57.768Z,-0.58
2023-02-28T04:54:24.203Z,-0.60
2023-02-28T04:56:50.883Z,-0.62
2023-02-28T04:59:17.634Z,-0.65
2023-02-28T05:01:47.806Z,-0.66
2023-02-28T05:04:14.882Z,-0.68
2023-02-28T05:06:41.313Z,-0.68
2023-02-28T05:09:07.771Z,-0.70
2023-02-28T05:11:36.109Z,-0.72
2023-02-28T05:14:05.486Z,-0.73
2023-02-28T05:16:33.081Z,-0.73
2023-02-28T05:18:59.993Z,-0.72
2023-02-28T05:21:31.660Z,-0.72
2023-02-28T05:24:00.332Z,-0.72
2023-02-28T05:26:27.816Z,-0.73
2023-02-28T05:28:54.375Z,-0.73
2023-02-28T05:31:21.339Z,-0.74
2023-02-28T05:33:48.360Z,-0.77
2023-02-28T05:36:15.309Z,-0.80
2023-02-28T05:38:41.782Z,-0.83
2023-02-28T05:41:10.556Z,-0.86
2023-02-28T05:43:38.234Z,-0.89
2023-02-28T05:46:07.499Z,-0.91
2023-02-28T05:48:35.810Z,-0.94
2023-02-28T05:51:03.525Z,-0.97
2023-02-28T05:53:30.649Z,-1.01
2023-02-28T05:55:57.546Z,-1.03
2023-02-28T05:58:26.445Z,-1.05
2023-02-28T06:00:52.917Z,-1.04
2023-02-28T06:03:19.487Z,-1.07
2023-02-28T06:05:46.024Z,-1.09
2023-02-28T06:08:12.467Z,-1.11
2023-02-28T06:10:39.059Z,-1.13
2023-02-28T06:13:06.228Z,-1.16
2023-02-28T06:15:32.802Z,-1.17
2023-02-28T06:17:59.588Z,-1.17
2023-02-28T06:20:30.147Z,-1.15
2023-02-28T06:22:59.724Z,-1.13
2023-02-28T06:25:29.453Z,-1.12
2023-02-28T06:27:56.406Z,-1.11
2023-02-28T06:30:27.761Z,-1.09
2023-02-28T06:32:55.479Z,-1.08
2023-02-28T06:35:23.459Z,-1.06
2023-02-28T06:37:50.146Z,-1.05
2023-02-28T06:40:16.800Z,-1.03
2023-02-28T06:42:43.562Z,-1.01
2023-02-28T06:45:11.446Z,-1.01
2023-02-28T06:47:39.622Z,-0.99
2023-02-28T06:50:07.167Z,-0.97
2023-02-28T06:52:33.977Z,-0.93
2023-02-28T06:55:03.333Z,-0.90
2023-02-28T06:57:34.380Z,-0.87
2023-02-28T07:00:03.817Z,-0.82
2023-02-28T07:02:30.331Z,-0.79
2023-02-28T07:04:56.843Z,-0.74
2023-02-28T07:07:23.310Z,-0.71
2023-02-28T07:09:49.773Z,-0.65
2023-02-28T07:12:16.320Z,-0.60
2023-02-28T07:14:42.759Z,-0.54
2023-02-28T07:17:11.793Z,-0.50
2023-02-28T07:19:39.118Z,-0.45
2023-02-28T07:22:06.394Z,-0.38
2023-02-28T07:24:33.267Z,-0.32
2023-02-28T07:27:00.315Z,-0.25
2023-02-28T07:29:26.864Z,-0.18
2023-02-28T07:31:54.157Z,-0.12
2023-02-28T07:34:21.798Z,-0.06
2023-02-28T07:36:48.274Z,-0.01
2023-02-28T07:39:14.765Z,0.07
2023-02-28T07:41:44.394Z,0.13
2023-02-28T07:44:12.403Z,0.20
2023-02-28T07:46:39.470Z,0.27
2023-02-28T07:49:06.483Z,0.35
2023-02-28T07:51:33.848Z,0.43
2023-02-28T07:54:00.332Z,0.51
2023-02-28T07:56:27.104Z,0.62
2023-02-28T07:58:54.027Z,0.71
2023-02-28T08:01:20.963Z,0.78
2023-02-28T08:03:47.420Z,0.87
2023-02-28T08:06:21.622Z,0.94
2023-02-28T08:08:48.262Z,1.01
2023-02-28T08:11:15.058Z,1.10
2023-02-28T08:13:43.302Z,1.18
2023-02-28T08:16:09.859Z,1.26
2023-02-28T08:18:36.379Z,1.32
2023-02-28T08:21:12.206Z,1.40
2023-02-28T08:23:39.059Z,1.46
2023-02-28T08:26:05.882Z,1.54
2023-02-28T08:28:32.646Z,1.63
2023-02-28T08:30:59.416Z,1.70
2023-02-28T08:33:26.471Z,1.76
2023-02-28T08:35:55.426Z,1.84
2023-02-28T08:38:22.437Z,1.92
2023-02-28T08:40:48.966Z,1.98
2023-02-28T08:43:15.554Z,2.05
2023-02-28T08:45:42.085Z,2.16
2023-02-28T08:48:08.953Z,2.24
2023-02-28T08:50:35.536Z,2.33
2023-02-28T08:53:02.096Z,2.39
2023-02-28T08:55:28.591Z,2.46
2023-02-28T08:57:55.903Z,2.53
2023-02-28T09:00:23.004Z,2.59
2023-02-28T09:02:49.439Z,2.66
2023-02-28T09:05:16.027Z,2.75
2023-02-28T09:07:42.691Z,2.82
2023-02-28T09:10:10.445Z,2.87
2023-02-28T09:12:36.994Z,2.92
2023-02-28T09:15:03.902Z,2.98
2023-02-28T09:17:31.212Z,3.03
2023-02-28T09:19:58.488Z,3.08
2023-02-28T09:22:25.276Z,3.11
2023-02-28T09:24:51.923Z,3.16
2023-02-28T09:27:18.434Z,3.22
2023-02-28T09:29:44.882Z,3.27
2023-02-28T09:32:11.600Z,3.31
2023-02-28T09:34:38.559Z,3.35
2023-02-28T09:37:05.475Z,3.39
2023-02-28T09:39:32.630Z,3.45
2023-02-28T09:41:59.367Z,3.50
2023-02-28T09:44:29.909Z,3.55
2023-02-28T09:47:04.361Z,3.60
2023-02-28T09:49:43.279Z,3.63
2023-02-28T09:52:14.689Z,3.68
2023-02-28T09:54:41.496Z,3.72
2023-02-28T09:57:17.500Z,3.76
2023-02-28T10:00:02.252Z,3.81
2023-02-28T10:02:59.125Z,3.84
2023-02-28T10:05:29.838Z,3.90
2023-02-28T10:08:09.273Z,3.95
2023-02-28T10:10:56.399Z,4.04
2023-02-28T10:13:45.783Z,4.08
2023-02-28T10:16:17.243Z,4.14
2023-02-28T10:19:07.013Z,4.20
2023-02-28T10:21:41.350Z,4.26
2023-02-28T10:24:23.972Z,4.32
2023-02-28T10:26:54.701Z,4.37
2023-02-28T10:29:21.198Z,4.42
2023-02-28T10:31:47.893Z,4.50
2023-02-28T10:34:14.995Z,4.58
2023-02-28T10:36:44.146Z,4.69
2023-02-28T10:39:35.804Z,4.96
2023-02-28T10:42:02.247Z,5.15
2023-02-28T10:44:28.763Z,5.28
2023-02-28T10:46:55.893Z,5.30
2023-02-28T10:49:24.972Z,5.30
2023-02-28T10:51:55.716Z,5.26
2023-02-28T10:54:36.175Z,5.20
2023-02-28T10:57:18.726Z,5.23
2023-02-28T10:59:45.538Z,5.22
2023-02-28T11:04:59.538Z,5.10
2023-02-28T11:07:27.796Z,5.04
2023-02-28T11:09:59.096Z,5.03
2023-02-28T11:12:29.285Z,5.10
2023-02-28T11:15:00.925Z,5.35
2023-02-28T11:17:30.825Z,5.68
2023-02-28T11:20:02.434Z,5.93
2023-02-28T11:22:32.583Z,6.05
2023-02-28T11:25:03.442Z,6.09
2023-02-28T11:27:32.857Z,6.07
2023-02-28T11:30:00.305Z,6.05
2023-02-28T11:32:31.361Z,6.05
2023-02-28T11:35:23.915Z,5.95
2023-02-28T11:37:50.489Z,5.91
2023-02-28T11:40:19.854Z,5.95
2023-02-28T11:42:56.986Z,5.94
2023-02-28T11:45:30.202Z,5.94
2023-02-28T11:48:16.910Z,5.88
2023-02-28T11:51:01.459Z,5.81
2023-02-28T11:53:49.721Z,5.87
2023-02-28T11:56:24.135Z,6.00
2023-02-28T11:59:07.082Z,6.15
2023-02-28T12:02:07.490Z,6.26
2023-02-28T12:05:09.193Z,6.42
2023-02-28T12:07:53.399Z,6.60
2023-02-28T12:10:27.316Z,6.76
2023-02-28T12:13:17.108Z,6.73
2023-02-28T12:16:02.521Z,6.62
2023-02-28T12:18:53.731Z,6.52
2023-02-28T12:21:39.983Z,6.39
2023-02-28T12:24:18.721Z,6.29
2023-02-28T12:26:47.218Z,6.29
2023-02-28T12:29:28.168Z,6.27
2023-02-28T12:32:02.713Z,6.23
2023-02-28T12:34:37.985Z,6.19
2023-02-28T12:37:14.573Z,6.22
2023-02-28T12:39:50.705Z,6.24
2023-02-28T12:42:27.159Z,6.27
2023-02-28T12:45:22.110Z,6.23
2023-02-28T12:47:53.918Z,6.16
2023-02-28T12:50:20.940Z,6.09
2023-02-28T12:53:32.537Z,6.02
2023-02-28T12:56:17.548Z,5.94
2023-02-28T12:58:56.372Z,5.91
2023-02-28T13:01:37.801Z,5.88
2023-02-28T13:04:41.599Z,5.87
2023-02-28T13:07:14.062Z,5.86
2023-02-28T13:09:41.281Z,5.87
2023-02-28T13:12:15.733Z,5.90
2023-02-28T13:14:42.324Z,5.88
2023-02-28T13:17:12.137Z,5.86
2023-02-28T13:19:55.075Z,5.86
2023-02-28T13:22:48.094Z,5.86
2023-02-28T13:25:23.940Z,5.90
2023-02-28T13:27:57.276Z,5.91
2023-02-28T13:30:51.937Z,5.92
2023-02-28T13:34:03.346Z,5.93
2023-02-28T13:36:32.633Z,5.94
2023-02-28T13:39:01.384Z,5.93
2023-02-28T13:41:37.014Z,5.92
2023-02-28T13:44:27.753Z,5.93
2023-02-28T13:46:57.035Z,5.96
2023-02-28T13:49:23.853Z,6.00
2023-02-28T13:51:52.431Z,6.02
2023-02-28T13:54:57.348Z,6.00
2023-02-28T13:57:42.708Z,6.02
2023-02-28T14:00:43.550Z,6.05
2023-02-28T14:03:38.188Z,6.08
2023-02-28T14:06:19.354Z,6.06
2023-02-28T14:08:57.924Z,6.08
2023-02-28T14:11:32.239Z,6.10
2023-02-28T14:13:59.834Z,6.09
2023-02-28T14:16:36.175Z,6.10
2023-02-28T14:19:11.553Z,6.10
2023-02-28T14:21:49.927Z,6.09
2023-02-28T14:24:39.604Z,6.09
2023-02-28T14:27:35.741Z,6.10
2023-02-28T14:30:37.824Z,6.10
2023-02-28T14:33:19.292Z,6.06
2023-02-28T14:36:07.191Z,6.07
2023-02-28T14:38:43.835Z,6.06
2023-02-28T14:41:32.325Z,6.05
2023-02-28T14:44:00.767Z,6.06
2023-02-28T14:46:39.312Z,6.04
2023-02-28T14:49:10.678Z,6.02
2023-02-28T14:51:37.241Z,5.99
2023-02-28T14:54:04.794Z,5.97
2023-02-28T14:56:39.326Z,5.98
2023-02-28T14:59:25.632Z,5.96
2023-02-28T15:01:53.328Z,5.92
2023-02-28T15:04:26.862Z,5.89
2023-02-28T15:07:11.740Z,5.87
2023-02-28T15:09:38.314Z,5.87
2023-02-28T15:12:05.098Z,5.84
2023-02-28T15:14:33.061Z,5.82
2023-02-28T15:17:06.777Z,5.80
2023-02-28T15:19:37.132Z,5.79
2023-02-28T15:22:09.680Z,5.80
2023-02-28T15:24:40.203Z,5.82
2023-02-28T15:27:33.068Z,5.83
2023-02-28T15:30:06.032Z,5.83
2023-02-28T15:32:35.695Z,5.82
2023-02-28T15:35:21.069Z,5.79
2023-02-28T15:37:53.365Z,5.76
2023-02-28T15:40:42.021Z,5.74
2023-02-28T15:43:18.968Z,5.74
2023-02-28T15:45:50.900Z,5.72
2023-02-28T15:48:24.107Z,5.69
2023-02-28T15:50:56.810Z,5.66
2023-02-28T15:53:32.053Z,5.61
2023-02-28T15:56:02.475Z,5.57
2023-02-28T15:58:29.947Z,5.54
2023-02-28T16:01:20.107Z,5.50
2023-02-28T16:03:50.448Z,5.48
2023-02-28T16:06:58.570Z,5.45
2023-02-28T16:09:25.472Z,5.44
2023-02-28T16:11:55.941Z,5.44
2023-02-28T16:14:31.659Z,5.42
2023-02-28T16:17:05.840Z,5.38
2023-02-28T16:19:34.399Z,5.34
2023-02-28T16:22:02.089Z,5.31
2023-02-28T16:24:28.528Z,5.26
2023-02-28T16:26:57.189Z,5.23
2023-02-28T16:29:36.894Z,5.18
2023-02-28T16:32:06.254Z,5.11
2023-02-28T16:34:32.943Z,5.07
2023-02-28T16:36:59.859Z,5.04
2023-02-28T16:39:26.294Z,5.00
2023-02-28T16:41:53.120Z,4.94
2023-02-28T16:44:30.178Z,4.89
2023-02-28T16:46:57.463Z,4.83
2023-02-28T16:49:24.097Z,4.79
2023-02-28T16:51:50.585Z,4.74
2023-02-28T16:54:17.025Z,4.69
2023-02-28T16:56:46.844Z,4.64
2023-02-28T16:59:14.562Z,4.58
2023-02-28T17:01:41.132Z,4.50
2023-02-28T17:04:10.230Z,4.42
2023-02-28T17:06:36.702Z,4.36
2023-02-28T17:09:03.445Z,4.29
2023-02-28T17:11:30.210Z,4.25
2023-02-28T17:13:56.982Z,4.19
2023-02-28T17:16:29.858Z,4.13
2023-02-28T17:19:00.186Z,4.09
2023-02-28T17:21:27.276Z,4.02
2023-02-28T17:23:53.771Z,3.97
2023-02-28T17:26:22.063Z,3.92
2023-02-28T17:28:49.695Z,3.87
2023-02-28T17:31:16.397Z,3.80
2023-02-28T17:33:43.101Z,3.75
2023-02-28T17:36:15.461Z,3.68
2023-02-28T17:38:42.387Z,3.62
2023-02-28T17:41:11.645Z,3.56
2023-02-28T17:43:38.775Z,3.49
2023-02-28T17:46:06.759Z,3.41
2023-02-28T17:48:34.241Z,3.34
2023-02-28T17:51:00.944Z,3.28
2023-02-28T17:53:28.101Z,3.22
2023-02-28T17:55:54.569Z,3.17
2023-02-28T17:58:21.037Z,3.12
2023-02-28T18:00:48.736Z,3.07
2023-02-28T18:03:15.247Z,3.01
2023-02-28T18:05:41.814Z,2.96
2023-02-28T18:08:11.489Z,2.91
2023-02-28T18:10:38.099Z,2.84
2023-02-28T18:13:04.709Z,2.79
2023-02-28T18:15:31.239Z,2.73
2023-02-28T18:17:57.783Z,2.65
2023-02-28T18:20:24.270Z,2.59
2023-02-28T18:22:50.950Z,2.55
2023-02-28T18:25:17.930Z,2.50
2023-02-28T18:27:58.114Z,2.47
2023-02-28T18:30:27.387Z,2.45
2023-02-28T18:32:53.865Z,2.41
2023-02-28T18:35:34.852Z,2.35
2023-02-28T18:38:22.475Z,2.30
2023-02-28T18:40:54.107Z,2.24
2023-02-28T18:43:20.853Z,2.20
2023-02-28T18:45:47.397Z,2.15
2023-02-28T18:48:15.056Z,2.11
2023-02-28T18:50:44.698Z,2.06
2023-02-28T18:53:11.388Z,2.03
2023-02-28T18:55:37.843Z,1.98
2023-02-28T18:58:04.724Z,1.94
2023-02-28T19:00:31.454Z,1.89
2023-02-28T19:02:58.074Z,1.84
2023-02-28T19:05:24.617Z,1.80
2023-02-28T19:07:51.135Z,1.77
2023-02-28T19:10:17.671Z,1.72
2023-02-28T19:12:44.192Z,1.68
2023-02-28T19:15:11.691Z,1.64
2023-02-28T19:17:38.409Z,1.60
2023-02-28T19:20:06.296Z,1.57
2023-02-28T19:22:33.187Z,1.53
2023-02-28T19:24:59.822Z,1.50
2023-02-28T19:27:26.314Z,1.47
2023-02-28T19:29:53.107Z,1.44
2023-02-28T19:32:20.944Z,1.40
2023-02-28T19:34:47.961Z,1.36
2023-02-28T19:37:14.838Z,1.34
2023-02-28T19:39:44.485Z,1.31
2023-02-28T19:42:16.039Z,1.28
2023-02-28T19:44:43.177Z,1.25
2023-02-28T19:47:09.945Z,1.19
2023-02-28T19:49:37.209Z,1.14
2023-02-28T19:52:05.343Z,1.11
2023-02-28T19:54:31.935Z,1.12
2023-02-28T19:56:58.876Z,1.11
2023-02-28T19:59:35.870Z,1.07
2023-02-28T20:02:06.683Z,1.03
2023-02-28T20:04:33.222Z,0.98
2023-02-28T20:06:59.682Z,0.97
2023-02-28T20:09:31.118Z,0.93
2023-02-28T20:11:59.420Z,0.89
2023-02-28T20:14:26.684Z,0.86
2023-02-28T20:16:53.310Z,0.84
2023-02-28T20:19:20.109Z,0.80
2023-02-28T20:21:46.932Z,0.77
2023-02-28T20:24:13.585Z,0.74
2023-02-28T20:26:40.412Z,0.70
2023-02-28T20:29:08.305Z,0.68
2023-02-28T20:31:37.598Z,0.63
2023-02-28T20:34:05.350Z,0.56
2023-02-28T20:36:32.445Z,0.53
2023-02-28T20:39:00.325Z,0.51
2023-02-28T20:41:27.727Z,0.48
2023-02-28T20:43:58.722Z,0.44
2023-02-28T20:46:26.078Z,0.42
2023-02-28T20:48:52.682Z,0.39
2023-02-28T20:51:19.677Z,0.36
2023-02-28T20:53:46.252Z,0.34
2023-02-28T20:56:18.711Z,0.29
2023-02-28T20:58:47.339Z,0.27
2023-02-28T21:01:25.849Z,0.24
2023-02-28T21:03:57.923Z,0.21
2023-02-28T21:06:27.073Z,0.20
2023-02-28T21:08:53.730Z,0.19
2023-02-28T21:11:25.488Z,0.13
2023-02-28T21:13:52.838Z,0.10
2023-02-28T21:16:21.762Z,0.08
2023-02-28T21:18:49.210Z,0.05
2023-02-28T21:21:19.255Z,0.04
2023-02-28T21:23:46.699Z,0.03
2023-02-28T21:26:19.236Z,0.00
2023-02-28T21:29:00.364Z,-0.02
2023-02-28T21:31:30.074Z,-0.05
2023-02-28T21:33:58.682Z,-0.06
2023-02-28T21:36:29.514Z,-0.07
2023-02-28T21:38:58.378Z,-0.10
2023-02-28T21:41:25.736Z,-0.13
2023-02-28T21:43:53.333Z,-0.14
2023-02-28T21:46:22.877Z,-0.16
2023-02-28T21:48:50.826Z,-0.20
2023-02-28T21:51:23.396Z,-0.23
2023-02-28T21:53:50.759Z,-0.26
2023-02-28T21:56:24.913Z,-0.29
2023-02-28T21:59:00.338Z,-0.34
2023-02-28T22:01:34.503Z,-0.36
2023-02-28T22:04:02.093Z,-0.38
2023-02-28T22:06:31.468Z,-0.40
2023-02-28T22:09:00.474Z,-0.42
2023-02-28T22:11:26.980Z,-0.42
2023-02-28T22:13:56.025Z,-0.46
2023-02-28T22:16:25.199Z,-0.50
2023-02-28T22:18:52.110Z,-0.53
2023-02-28T22:21:19.496Z,-0.56
2023-02-28T22:23:46.723Z,-0.60
2023-02-28T22:26:19.622Z,-0.62
2023-02-28T22:28:46.211Z,-0.64
2023-02-28T22:31:19.839Z,-0.67
2023-02-28T22:33:47.848Z,-0.68
2023-02-28T22:36:17.018Z,-0.70
2023-02-28T22:38:44.946Z,-0.74
2023-02-28T22:41:12.444Z,-0.76
2023-02-28T22:43:40.525Z,-0.77
2023-02-28T22:46:09.034Z,-0.80
2023-02-28T22:48:37.731Z,-0.83
2023-02-28T22:51:13.235Z,-0.85
2023-02-28T22:53:39.701Z,-0.88
2023-02-28T22:56:07.491Z,-0.88
2023-02-28T22:58:34.540Z,-0.91
2023-02-28T23:01:14.118Z,-0.94
2023-02-28T23:03:41.796Z,-0.98
2023-02-28T23:06:19.568Z,-1.00
2023-02-28T23:08:46.139Z,-1.01
2023-02-28T23:11:21.749Z,-1.05
2023-02-28T23:13:58.704Z,-1.07
2023-02-28T23:16:36.063Z,-1.08
2023-02-28T23:19:10.803Z,-1.10
2023-02-28T23:21:38.454Z,-1.11
2023-02-28T23:24:10.501Z,-1.14
2023-02-28T23:26:39.422Z,-1.16
2023-02-28T23:29:06.100Z,-1.20
2023-02-28T23:31:33.776Z,-1.20
2023-02-28T23:34:00.731Z,-1.20
2023-02-28T23:36:28.644Z,-1.22
2023-02-28T23:38:56.143Z,-1.23
2023-02-28T23:41:23.740Z,-1.27
2023-02-28T23:43:52.710Z,-1.28
2023-02-28T23:46:20.929Z,-1.30
2023-02-28T23:48:47.887Z,-1.33
2023-02-28T23:51:17.349Z,-1.34
2023-02-28T23:53:47.704Z,-1.37
2023-02-28T23:56:16.426Z,-1.37
2023-02-28T23:58:43.811Z,-1.40
